ADDS METAR Data INFO
IDs: Format: Raw Decoded Include TAF

Data at: 0544 UTC 22 Nov 2017

KSWW 220535Z AUTO 02010KT 10SM CLR 09/M01 A3037 RMK AO2 T00851013
KSWW 220515Z AUTO 02010KT 10SM CLR 09/M01 A3037 RMK AO2 T00901014
KSWW 220455Z AUTO 02011G15KT 10SM CLR 09/M01 A3037 RMK AO2 T00901015
KSWW 220435Z AUTO 03007KT 10SM CLR 09/M02 A3036 RMK AO2 T00911020
KSWW 220415Z AUTO 02009KT 10SM CLR 10/M02 A3035 RMK AO2 T00991021
KSWW 220355Z AUTO 02010G17KT 10SM CLR 11/M02 A3035 RMK AO2 T01051025
KSWW 220335Z AUTO 01015G22KT 10SM CLR 11/M03 A3033 RMK AO2 T01051031
KSWW 220315Z AUTO 02010G17KT 10SM CLR 11/M04 A3032 RMK AO2 T01121036
KSWW 220255Z AUTO 01014G21KT 10SM CLR 12/M04 A3030 RMK AO2 T01191037
KSWW 220235Z AUTO 01016G27KT 10SM CLR 13/M04 A3028 RMK AO2 T01251040
KSWW 220215Z AUTO 01015G21KT 10SM CLR 13/M04 A3028 RMK AO2 T01291043
KSWW 220155Z AUTO 02014G19KT 10SM CLR 14/M04 A3026 RMK AO2 T01361043
KSWW 220135Z AUTO 02015G22KT 10SM CLR 15/M04 A3024 RMK AO2 T01451043
KSWW 220115Z AUTO 02012G23KT 10SM CLR 15/M04 A3023 RMK AO2 T01541041
KSWW 220055Z AUTO 01017G22KT 10SM CLR 16/M03 A3020 RMK AO2 T01601035
KSWW 220035Z AUTO 01016G23KT 10SM CLR 17/M03 A3019 RMK AO2 T01671032
KSWW 220015Z AUTO 02012G22KT 10SM CLR 17/M03 A3017 RMK AO2 T01741035
KSWW 212355Z AUTO 02015G25KT 10SM CLR 18/M03 A3016 RMK AO2 T01801034 10214 20164
KSWW 212335Z AUTO 02015G25KT 10SM CLR 19/M03 A3014 RMK AO2 T01881030
KSWW 212315Z AUTO 36018G25KT 10SM CLR 20/M03 A3013 RMK AO2 T01961028
KSWW 212255Z AUTO 01021G31KT 10SM CLR 20/M03 A3011 RMK AO2 T02011030
KSWW 212235Z AUTO 36016G29KT 10SM CLR 20/M03 A3010 RMK AO2 T02041034
KSWW 212215Z AUTO 02023G33KT 10SM CLR 21/M04 A3009 RMK AO2 T02051036
KSWW 212155Z AUTO 36024G32KT 10SM CLR 21/M04 A3007 RMK AO2 T02081041
KSWW 212135Z AUTO 02019G39KT 10SM CLR 21/M05 A3006 RMK AO2 T02081048
KSWW 212115Z AUTO 02019G34KT 10SM CLR 21/M04 A3005 RMK AO2 T02101044
KSWW 212055Z AUTO 36025G31KT 10SM CLR 21/M04 A3005 RMK AO2 T02121036
KSWW 212035Z AUTO 36026G34KT 10SM CLR 21/M04 A3003 RMK AO2 T02111042
KSWW 212015Z AUTO 01019G29KT 10SM CLR 21/M04 A3003 RMK AO2 T02091038
KSWW 211955Z AUTO 36020G29KT 10SM CLR 20/M03 A3002 RMK AO2 T02001030
KSWW 211935Z AUTO 35021G27KT 10SM CLR 20/M03 A3001 RMK AO2 T01951027
KSWW 211915Z AUTO 36019G28KT 10SM CLR 19/M02 A3001 RMK AO2 T01931025
KSWW 211855Z AUTO 35019G26KT 10SM CLR 18/M02 A3000 RMK AO2 T01811021
KSWW 211835Z AUTO 36015G18KT 10SM CLR 18/M01 A2999 RMK AO2 T01821012
KSWW 211815Z AUTO 34015KT 10SM CLR 17/M02 A2998 RMK AO2 T01691018
KSWW 211755Z AUTO 36019G23KT 10SM CLR 17/M01 A2998 RMK AO2 T01651015 10165 20088
KSWW 211735Z AUTO 35017G20KT 10SM CLR 16/M02 A2997 RMK AO2 T01551019
KSWW 211715Z AUTO 34014G23KT 10SM CLR 15/M02 A2996 RMK AO2 T01541025
KSWW 211655Z AUTO 33016G19KT 10SM CLR 15/M04 A2995 RMK AO2 T01481040
KSWW 211635Z AUTO 34014G19KT 10SM CLR 15/M05 A2994 RMK AO2 T01471049
KSWW 211615Z AUTO 35014G20KT 10SM CLR 15/M06 A2992 RMK AO2 T01511061
KSWW 211555Z AUTO 32012G17KT 10SM CLR 14/M05 A2991 RMK AO2 T01431053
KSWW 211535Z AUTO 30009KT 10SM CLR 14/M04 A2990 RMK AO2 T01371036
KSWW 211515Z AUTO 27007KT 10SM CLR 12/M01 A2989 RMK AO2 T01241009
KSWW 211455Z AUTO 26008KT 10SM CLR 11/00 A2988 RMK AO2 T01110000
KSWW 211435Z AUTO 25008KT 10SM CLR 10/01 A2987 RMK AO2 T00960006
KSWW 211415Z AUTO 24009KT 10SM CLR 10/01 A2986 RMK AO2 T00960006
KSWW 211355Z AUTO 23010KT 10SM CLR 09/01 A2984 RMK AO2 T00910008
KSWW 211335Z AUTO 24011KT 10SM CLR 09/01 A2984 RMK AO2 T00900010
KSWW 211315Z AUTO 25013KT 10SM CLR 10/01 A2984 RMK AO2 T00960008
KSWW 211255Z AUTO 24012KT 10SM CLR 10/01 A2982 RMK AO2 T00990010
KSWW 211235Z AUTO 23014KT 10SM CLR 10/01 A2981 RMK AO2 T01000011
KSWW 211215Z AUTO 23011KT 10SM CLR 10/01 A2982 RMK AO2 T01010013
KSWW 211155Z AUTO 23014G17KT 10SM CLR 11/02 A2982 RMK AO2 T01050015 10120 20101
KSWW 211135Z AUTO 22016KT 10SM CLR 11/02 A2980 RMK AO2 T01070015
KSWW 211115Z AUTO 22014KT 10SM CLR 11/02 A2980 RMK AO2 T01070015
KSWW 211055Z AUTO 22012KT 10SM CLR 11/02 A2981 RMK AO2 T01100015
KSWW 211035Z AUTO 23012KT 10SM CLR 11/02 A2981 RMK AO2 T01100017
KSWW 211015Z AUTO 21015KT 10SM CLR 11/02 A2981 RMK AO2 T01110016
KSWW 210955Z AUTO 20014KT 10SM CLR 11/02 A2981 RMK AO2 T01110017
KSWW 210935Z AUTO 20011KT 10SM CLR 11/02 A2981 RMK AO2 T01060018
KSWW 210915Z AUTO 19011KT 10SM CLR 10/02 A2982 RMK AO2 T01040017
KSWW 210855Z AUTO 20013KT 10SM CLR 11/02 A2983 RMK AO2 T01060017
KSWW 210835Z AUTO 19013KT 10SM CLR 10/02 A2983 RMK AO2 T01040019
KSWW 210815Z AUTO 19011KT 10SM CLR 10/02 A2984 RMK AO2 T01010019
KSWW 210755Z AUTO 20013KT 10SM CLR 10/02 A2985 RMK AO2 T01040018
KSWW 210735Z AUTO 20013KT 10SM CLR 11/02 A2986 RMK AO2 T01080017
KSWW 210715Z AUTO 20014KT 10SM CLR 11/02 A2987 RMK AO2 T01100016
KSWW 210655Z AUTO 19015KT 10SM CLR 11/02 A2987 RMK AO2 T01110016
KSWW 210635Z AUTO 19016KT 10SM CLR 11/02 A2986 RMK AO2 T01130015
KSWW 210615Z AUTO 19017KT 10SM CLR 12/02 A2988 RMK AO2 T01160015
KSWW 210555Z AUTO 18017KT 10SM CLR 12/01 A2988 RMK AO2 T01200012 10161 20110 402000023
KSWW 210535Z AUTO 19017G22KT 10SM CLR 12/01 A2989 RMK AO2 T01240010
KSWW 210515Z AUTO 18017KT 10SM CLR 13/01 A2990 RMK AO2 T01270006
KSWW 210455Z AUTO 19018KT 10SM CLR 13/00 A2991 RMK AO2 T01290003
KSWW 210435Z AUTO 19015KT 10SM CLR 13/00 A2992 RMK AO2 T01300001
KSWW 210415Z AUTO 18016KT 10SM CLR 13/00 A2992 RMK AO2 T01330000
KSWW 210355Z AUTO 18015KT 10SM CLR 14/00 A2992 RMK AO2 T01350000
KSWW 210335Z AUTO 18015G20KT 10SM CLR 14/00 A2992 RMK AO2 T01350000
KSWW 210315Z AUTO 18015KT 10SM CLR 14/00 A2991 RMK AO2 T01350000
KSWW 210255Z AUTO 18011KT 10SM CLR 12/00 A2992 RMK AO2 T01220002
KSWW 210235Z AUTO 16010KT 10SM CLR 11/01 A2992 RMK AO2 T01100006
KSWW 210215Z AUTO 17008KT 10SM CLR 11/01 A2992 RMK AO2 T01130005
KSWW 210155Z AUTO 16007KT 10SM CLR 12/00 A2993 RMK AO2 T01150003
KSWW 210135Z AUTO 18008KT 10SM CLR 12/00 A2992 RMK AO2 T01210001
KSWW 210115Z AUTO 17008KT 10SM CLR 13/00 A2992 RMK AO2 T01320000
KSWW 210055Z AUTO 18009KT 10SM CLR 14/00 A2992 RMK AO2 T01420000
KSWW 210035Z AUTO 19009KT 10SM CLR 14/00 A2992 RMK AO2 T01430000
KSWW 210015Z AUTO 18010KT 10SM CLR 15/00 A2991 RMK AO2 T01541003
KSWW 202355Z AUTO 17009KT 10SM CLR 16/00 A2991 RMK AO2 T01621004 10200 20156
KSWW 202335Z AUTO 18009KT 10SM CLR 17/00 A2992 RMK AO2 T01741005
KSWW 202315Z AUTO 18012KT 10SM CLR 19/M01 A2994 RMK AO2 T01851007
KSWW 202255Z AUTO 18014G19KT 10SM CLR 19/M01 A2994 RMK AO2 T01911009
KSWW 202235Z AUTO 18015KT 10SM CLR 20/M01 A2995 RMK AO2 T01951008
KSWW 202215Z AUTO 19016G20KT 10SM CLR 20/M01 A2994 RMK AO2 T02001008
KSWW 202155Z AUTO 20013KT 10SM CLR 20/M01 A2994 RMK AO2 T01961010
KSWW 202135Z AUTO 20016G23KT 10SM CLR 20/M01 A2995 RMK AO2 T01971011
KSWW 202115Z AUTO 19017G22KT 10SM CLR 20/M01 A2995 RMK AO2 T01961013
KSWW 202055Z AUTO 20017G22KT 10SM CLR 19/M01 A2995 RMK AO2 T01931015
KSWW 202035Z AUTO 20017KT 10SM CLR 19/M01 A2997 RMK AO2 T01931015
KSWW 202015Z AUTO 19015G20KT 10SM CLR 19/M02 A2997 RMK AO2 T01891016
KSWW 201955Z AUTO 19013G20KT 10SM CLR 19/M02 A2998 RMK AO2 T01861016
KSWW 201935Z AUTO 20016G20KT 10SM CLR 19/M02 A2999 RMK AO2 T01861018
KSWW 201915Z AUTO 20017G22KT 10SM CLR 18/M02 A3000 RMK AO2 T01771019
KSWW 201855Z AUTO 18018KT 10SM CLR 17/M01 A3002 RMK AO2 T01731015
KSWW 201835Z AUTO 19015G25KT 10SM CLR 17/M02 A3003 RMK AO2 T01671017
KSWW 201815Z AUTO 18015KT 10SM CLR 16/M02 A3005 RMK AO2 T01581020
KSWW 201750Z AUTO 20017KT 10SM CLR 16/M02 A3007 RMK AO2 T01551024 10155 20030